To NAV CANADA Home Page Login to a new session Search on AWWS site Feedback and Comments Disclaimer Vers la page française équivalente Tips FAQ What's new on the site To the Forecasts and Observations / NOTAM section To "File a Flight Plan" website Publications and other links Update of the User's profile FIC Telephone Numbers My Weather Data Folder Route Weather Data Regional Weather Data Local Weather Data To the Forecasts and Observations / NOTAM section
Request Generated 04/19/2015 at 17:38:44 UTC . Weather information available at that time is displayed.

METAR/TAF

GOOSE BAY/NL    

METAR CYYR 191700Z 09008KT 15SM FEW052 SCT070 BKN210 04/M09 A3000 RMK CF2AC2CI1 SLP163=
METAR CYYR 191600Z 13002KT 15SM FEW055 BKN072 BKN210 05/M10 A3000 RMK CF2AC2CI0 SLP164=
METAR CYYR 191500Z 14008KT 15SM FEW055 SCT210 03/M09 A3002 RMK CF2CI1 SLP169=

TAF CYYR 191730Z 1918/2018 VRB03KT P6SM SCT070 BKN200
BECMG 1918/1920 21008KT
BECMG 2000/2002 VRB03KT
FM200500 VRB03KT P6SM BKN030 TEMPO 2005/2012 3SM -SHSN OVC015
PROB30 2005/2012 2SM -SHSN
FM201400 28008KT P6SM SCT030
BECMG 2014/2016 VRB03KT
RMK NXT FCST BY 200000Z=
Your time UTC time
Weather data provided by Environment Canada and NAV CANADA